sensor_id;sensor_type;location;lat;lon;timestamp;P1;durP1;ratioP1;P2;durP2;ratioP2
70800;SDS011;59616;52.170;5.386;2023-05-07T00:00:03;13.32;;;7.72;;
70800;SDS011;59616;52.170;5.386;2023-05-07T00:02:35;14.38;;;7.70;;
70800;SDS011;59616;52.170;5.386;2023-05-07T00:05:04;14.95;;;8.10;;
70800;SDS011;59616;52.170;5.386;2023-05-07T00:07:31;13.23;;;7.07;;
70800;SDS011;59616;52.170;5.386;2023-05-07T00:09:58;13.63;;;7.60;;
70800;SDS011;59616;52.170;5.386;2023-05-07T00:12:25;14.40;;;7.60;;
70800;SDS011;59616;52.170;5.386;2023-05-07T00:14:53;15.07;;;7.20;;
70800;SDS011;59616;52.170;5.386;2023-05-07T00:17:20;13.85;;;6.75;;
70800;SDS011;59616;52.170;5.386;2023-05-07T00:19:47;15.52;;;7.55;;
70800;SDS011;59616;52.170;5.386;2023-05-07T00:22:14;13.02;;;7.13;;
70800;SDS011;59616;52.170;5.386;2023-05-07T00:24:42;14.65;;;7.07;;
70800;SDS011;59616;52.170;5.386;2023-05-07T00:27:09;15.45;;;7.32;;
70800;SDS011;59616;52.170;5.386;2023-05-07T00:29:36;13.95;;;7.43;;
70800;SDS011;59616;52.170;5.386;2023-05-07T00:32:03;13.75;;;7.72;;
70800;SDS011;59616;52.170;5.386;2023-05-07T00:34:31;13.32;;;7.70;;
70800;SDS011;59616;52.170;5.386;2023-05-07T00:36:58;12.65;;;6.53;;
70800;SDS011;59616;52.170;5.386;2023-05-07T00:39:25;12.80;;;7.28;;
70800;SDS011;59616;52.170;5.386;2023-05-07T00:41:52;13.63;;;7.55;;
70800;SDS011;59616;52.170;5.386;2023-05-07T00:44:19;13.73;;;7.30;;
70800;SDS011;59616;52.170;5.386;2023-05-07T00:46:47;13.68;;;7.30;;
70800;SDS011;59616;52.170;5.386;2023-05-07T00:49:16;14.57;;;7.63;;
70800;SDS011;59616;52.170;5.386;2023-05-07T00:51:43;15.55;;;7.55;;
70800;SDS011;59616;52.170;5.386;2023-05-07T00:54:11;14.07;;;7.65;;
70800;SDS011;59616;52.170;5.386;2023-05-07T00:56:39;13.30;;;7.38;;
70800;SDS011;59616;52.170;5.386;2023-05-07T00:59:06;15.63;;;7.70;;
70800;SDS011;59616;52.170;5.386;2023-05-07T01:01:33;13.27;;;7.38;;
70800;SDS011;59616;52.170;5.386;2023-05-07T01:04:01;14.52;;;8.15;;
70800;SDS011;59616;52.170;5.386;2023-05-07T01:06:29;12.25;;;6.78;;
70800;SDS011;59616;52.170;5.386;2023-05-07T01:08:58;13.27;;;7.47;;
70800;SDS011;59616;52.170;5.386;2023-05-07T01:11:25;13.20;;;7.68;;
70800;SDS011;59616;52.170;5.386;2023-05-07T01:13:53;13.85;;;7.10;;
70800;SDS011;59616;52.170;5.386;2023-05-07T01:16:20;13.88;;;7.32;;
70800;SDS011;59616;52.170;5.386;2023-05-07T01:18:48;15.00;;;7.55;;
70800;SDS011;59616;52.170;5.386;2023-05-07T01:21:15;15.02;;;7.47;;
70800;SDS011;59616;52.170;5.386;2023-05-07T01:23:44;13.23;;;7.15;;
70800;SDS011;59616;52.170;5.386;2023-05-07T01:26:12;12.80;;;7.35;;
70800;SDS011;59616;52.170;5.386;2023-05-07T01:28:42;14.30;;;7.30;;
70800;SDS011;59616;52.170;5.386;2023-05-07T01:31:09;13.65;;;7.03;;
70800;SDS011;59616;52.170;5.386;2023-05-07T01:33:38;12.93;;;7.03;;
70800;SDS011;59616;52.170;5.386;2023-05-07T01:36:07;14.80;;;7.68;;
70800;SDS011;59616;52.170;5.386;2023-05-07T01:38:35;14.02;;;6.93;;
70800;SDS011;59616;52.170;5.386;2023-05-07T01:41:03;13.20;;;7.32;;
70800;SDS011;59616;52.170;5.386;2023-05-07T01:43:30;12.70;;;7.00;;
70800;SDS011;59616;52.170;5.386;2023-05-07T01:45:58;13.60;;;7.25;;
70800;SDS011;59616;52.170;5.386;2023-05-07T01:48:25;15.65;;;7.03;;
70800;SDS011;59616;52.170;5.386;2023-05-07T01:50:53;13.77;;;6.82;;
70800;SDS011;59616;52.170;5.386;2023-05-07T01:53:20;14.43;;;7.32;;
70800;SDS011;59616;52.170;5.386;2023-05-07T01:55:47;13.13;;;7.70;;
70800;SDS011;59616;52.170;5.386;2023-05-07T01:58:15;16.35;;;8.00;;
70800;SDS011;59616;52.170;5.386;2023-05-07T02:00:42;14.70;;;7.30;;
70800;SDS011;59616;52.170;5.386;2023-05-07T02:03:10;13.43;;;7.38;;
70800;SDS011;59616;52.170;5.386;2023-05-07T02:05:45;15.35;;;7.68;;
70800;SDS011;59616;52.170;5.386;2023-05-07T02:08:20;14.18;;;7.53;;
70800;SDS011;59616;52.170;5.386;2023-05-07T02:10:47;15.95;;;7.55;;
70800;SDS011;59616;52.170;5.386;2023-05-07T02:13:16;13.73;;;7.43;;
70800;SDS011;59616;52.170;5.386;2023-05-07T02:15:43;16.83;;;8.52;;
70800;SDS011;59616;52.170;5.386;2023-05-07T02:18:13;14.98;;;8.45;;
70800;SDS011;59616;52.170;5.386;2023-05-07T02:20:40;13.55;;;7.38;;
70800;SDS011;59616;52.170;5.386;2023-05-07T02:23:07;14.60;;;7.78;;
70800;SDS011;59616;52.170;5.386;2023-05-07T02:25:35;13.88;;;7.65;;
70800;SDS011;59616;52.170;5.386;2023-05-07T02:28:02;14.13;;;8.07;;
70800;SDS011;59616;52.170;5.386;2023-05-07T02:30:42;14.85;;;7.68;;
70800;SDS011;59616;52.170;5.386;2023-05-07T02:33:09;14.82;;;8.13;;
70800;SDS011;59616;52.170;5.386;2023-05-07T02:35:39;14.48;;;7.55;;
70800;SDS011;59616;52.170;5.386;2023-05-07T02:38:06;13.68;;;8.25;;
70800;SDS011;59616;52.170;5.386;2023-05-07T02:40:37;16.40;;;8.43;;
70800;SDS011;59616;52.170;5.386;2023-05-07T02:43:05;16.48;;;8.32;;
70800;SDS011;59616;52.170;5.386;2023-05-07T02:45:33;15.60;;;7.95;;
70800;SDS011;59616;52.170;5.386;2023-05-07T02:48:02;15.80;;;8.48;;
70800;SDS011;59616;52.170;5.386;2023-05-07T02:50:29;14.65;;;8.05;;
70800;SDS011;59616;52.170;5.386;2023-05-07T02:52:58;14.27;;;8.35;;
70800;SDS011;59616;52.170;5.386;2023-05-07T02:55:26;16.02;;;8.60;;
70800;SDS011;59616;52.170;5.386;2023-05-07T02:57:53;19.88;;;8.50;;
70800;SDS011;59616;52.170;5.386;2023-05-07T03:00:21;15.93;;;8.43;;
70800;SDS011;59616;52.170;5.386;2023-05-07T03:02:57;17.60;;;8.43;;
70800;SDS011;59616;52.170;5.386;2023-05-07T03:05:24;15.80;;;8.52;;
70800;SDS011;59616;52.170;5.386;2023-05-07T03:07:51;17.25;;;8.93;;
70800;SDS011;59616;52.170;5.386;2023-05-07T03:10:18;14.60;;;8.35;;
70800;SDS011;59616;52.170;5.386;2023-05-07T03:12:46;14.55;;;8.32;;
70800;SDS011;59616;52.170;5.386;2023-05-07T03:15:15;17.63;;;8.77;;
70800;SDS011;59616;52.170;5.386;2023-05-07T03:17:43;15.30;;;8.68;;
70800;SDS011;59616;52.170;5.386;2023-05-07T03:20:10;15.88;;;8.93;;
70800;SDS011;59616;52.170;5.386;2023-05-07T03:22:38;15.52;;;8.85;;
70800;SDS011;59616;52.170;5.386;2023-05-07T03:25:06;16.50;;;8.55;;
70800;SDS011;59616;52.170;5.386;2023-05-07T03:27:33;14.73;;;8.82;;
70800;SDS011;59616;52.170;5.386;2023-05-07T03:30:01;16.30;;;8.88;;
70800;SDS011;59616;52.170;5.386;2023-05-07T03:32:28;16.90;;;8.55;;
70800;SDS011;59616;52.170;5.386;2023-05-07T03:34:55;16.58;;;8.73;;
70800;SDS011;59616;52.170;5.386;2023-05-07T03:37:23;16.83;;;8.88;;
70800;SDS011;59616;52.170;5.386;2023-05-07T03:39:50;15.32;;;8.55;;
70800;SDS011;59616;52.170;5.386;2023-05-07T03:42:18;15.93;;;8.65;;
70800;SDS011;59616;52.170;5.386;2023-05-07T03:44:48;15.00;;;8.57;;
70800;SDS011;59616;52.170;5.386;2023-05-07T03:47:15;16.30;;;9.02;;
70800;SDS011;59616;52.170;5.386;2023-05-07T03:49:44;16.15;;;8.95;;
70800;SDS011;59616;52.170;5.386;2023-05-07T03:52:11;15.10;;;8.07;;
70800;SDS011;59616;52.170;5.386;2023-05-07T03:54:39;17.20;;;8.52;;
70800;SDS011;59616;52.170;5.386;2023-05-07T03:57:06;17.67;;;8.90;;
70800;SDS011;59616;52.170;5.386;2023-05-07T03:59:33;15.40;;;8.35;;
70800;SDS011;59616;52.170;5.386;2023-05-07T04:02:01;15.77;;;8.73;;
70800;SDS011;59616;52.170;5.386;2023-05-07T04:04:31;16.15;;;9.13;;
70800;SDS011;59616;52.170;5.386;2023-05-07T04:06:59;18.50;;;9.02;;
70800;SDS011;59616;52.170;5.386;2023-05-07T04:09:28;18.05;;;8.95;;
70800;SDS011;59616;52.170;5.386;2023-05-07T04:11:56;17.10;;;8.57;;
70800;SDS011;59616;52.170;5.386;2023-05-07T04:14:23;16.10;;;8.88;;
70800;SDS011;59616;52.170;5.386;2023-05-07T04:16:51;15.75;;;8.80;;
70800;SDS011;59616;52.170;5.386;2023-05-07T04:19:18;16.38;;;8.38;;
70800;SDS011;59616;52.170;5.386;2023-05-07T04:21:49;17.70;;;9.20;;
70800;SDS011;59616;52.170;5.386;2023-05-07T04:24:16;17.30;;;8.98;;
70800;SDS011;59616;52.170;5.386;2023-05-07T04:26:44;17.75;;;8.95;;
70800;SDS011;59616;52.170;5.386;2023-05-07T04:29:12;19.15;;;9.55;;
70800;SDS011;59616;52.170;5.386;2023-05-07T04:31:39;17.05;;;8.93;;
70800;SDS011;59616;52.170;5.386;2023-05-07T04:34:07;18.08;;;9.15;;
70800;SDS011;59616;52.170;5.386;2023-05-07T04:36:35;20.75;;;9.77;;
70800;SDS011;59616;52.170;5.386;2023-05-07T04:41:38;17.45;;;9.48;;
70800;SDS011;59616;52.170;5.386;2023-05-07T04:44:06;19.33;;;10.23;;
70800;SDS011;59616;52.170;5.386;2023-05-07T04:46:33;18.25;;;10.02;;
70800;SDS011;59616;52.170;5.386;2023-05-07T04:49:01;18.40;;;9.65;;
70800;SDS011;59616;52.170;5.386;2023-05-07T04:51:29;18.13;;;9.63;;
70800;SDS011;59616;52.170;5.386;2023-05-07T04:53:59;17.92;;;9.75;;
70800;SDS011;59616;52.170;5.386;2023-05-07T04:56:29;20.60;;;10.15;;
70800;SDS011;59616;52.170;5.386;2023-05-07T04:58:59;19.83;;;9.70;;
70800;SDS011;59616;52.170;5.386;2023-05-07T05:01:27;17.33;;;8.98;;
70800;SDS011;59616;52.170;5.386;2023-05-07T05:03:54;20.17;;;9.70;;
70800;SDS011;59616;52.170;5.386;2023-05-07T05:06:21;17.20;;;9.68;;
70800;SDS011;59616;52.170;5.386;2023-05-07T05:08:50;18.48;;;9.52;;
70800;SDS011;59616;52.170;5.386;2023-05-07T05:11:17;16.10;;;9.57;;
70800;SDS011;59616;52.170;5.386;2023-05-07T05:13:45;21.15;;;9.35;;
70800;SDS011;59616;52.170;5.386;2023-05-07T05:16:18;17.75;;;9.73;;
70800;SDS011;59616;52.170;5.386;2023-05-07T05:18:46;20.08;;;10.20;;
70800;SDS011;59616;52.170;5.386;2023-05-07T05:21:16;18.67;;;10.15;;
70800;SDS011;59616;52.170;5.386;2023-05-07T05:23:46;18.77;;;9.98;;
70800;SDS011;59616;52.170;5.386;2023-05-07T05:26:17;19.70;;;10.55;;
70800;SDS011;59616;52.170;5.386;2023-05-07T05:28:44;18.02;;;10.15;;
70800;SDS011;59616;52.170;5.386;2023-05-07T05:31:13;18.10;;;9.73;;
70800;SDS011;59616;52.170;5.386;2023-05-07T05:33:40;19.58;;;10.27;;
70800;SDS011;59616;52.170;5.386;2023-05-07T05:36:11;20.08;;;10.77;;
70800;SDS011;59616;52.170;5.386;2023-05-07T05:38:40;20.98;;;10.23;;
70800;SDS011;59616;52.170;5.386;2023-05-07T05:41:08;20.88;;;10.85;;
70800;SDS011;59616;52.170;5.386;2023-05-07T05:43:36;19.17;;;10.40;;
70800;SDS011;59616;52.170;5.386;2023-05-07T05:46:03;21.58;;;10.52;;
70800;SDS011;59616;52.170;5.386;2023-05-07T05:48:30;18.10;;;9.77;;
70800;SDS011;59616;52.170;5.386;2023-05-07T05:51:00;19.40;;;9.45;;
70800;SDS011;59616;52.170;5.386;2023-05-07T05:53:27;21.88;;;11.00;;
70800;SDS011;59616;52.170;5.386;2023-05-07T05:55:54;20.42;;;10.98;;
70800;SDS011;59616;52.170;5.386;2023-05-07T05:58:22;21.90;;;10.57;;
70800;SDS011;59616;52.170;5.386;2023-05-07T06:00:55;22.65;;;11.55;;
70800;SDS011;59616;52.170;5.386;2023-05-07T06:03:24;20.67;;;10.45;;
70800;SDS011;59616;52.170;5.386;2023-05-07T06:05:53;20.30;;;10.30;;
70800;SDS011;59616;52.170;5.386;2023-05-07T06:08:21;21.05;;;10.60;;
70800;SDS011;59616;52.170;5.386;2023-05-07T06:10:49;21.40;;;11.27;;
70800;SDS011;59616;52.170;5.386;2023-05-07T06:13:17;22.90;;;11.45;;
70800;SDS011;59616;52.170;5.386;2023-05-07T06:15:44;21.17;;;11.02;;
70800;SDS011;59616;52.170;5.386;2023-05-07T06:18:12;22.02;;;11.18;;
70800;SDS011;59616;52.170;5.386;2023-05-07T06:20:40;19.63;;;11.52;;
70800;SDS011;59616;52.170;5.386;2023-05-07T06:23:13;22.33;;;11.68;;
70800;SDS011;59616;52.170;5.386;2023-05-07T06:25:47;21.23;;;10.73;;
70800;SDS011;59616;52.170;5.386;2023-05-07T06:28:16;22.25;;;10.98;;
70800;SDS011;59616;52.170;5.386;2023-05-07T06:30:44;20.17;;;11.68;;
70800;SDS011;59616;52.170;5.386;2023-05-07T06:33:11;20.35;;;11.55;;
70800;SDS011;59616;52.170;5.386;2023-05-07T06:35:38;23.35;;;12.90;;
70800;SDS011;59616;52.170;5.386;2023-05-07T06:38:06;21.42;;;11.70;;
70800;SDS011;59616;52.170;5.386;2023-05-07T06:40:33;20.80;;;11.85;;
70800;SDS011;59616;52.170;5.386;2023-05-07T06:43:00;22.73;;;12.02;;
70800;SDS011;59616;52.170;5.386;2023-05-07T06:45:44;23.20;;;11.80;;
70800;SDS011;59616;52.170;5.386;2023-05-07T06:48:12;18.80;;;10.70;;
70800;SDS011;59616;52.170;5.386;2023-05-07T06:50:48;22.80;;;12.00;;
70800;SDS011;59616;52.170;5.386;2023-05-07T06:53:16;22.33;;;11.68;;
70800;SDS011;59616;52.170;5.386;2023-05-07T06:55:44;22.90;;;11.55;;
70800;SDS011;59616;52.170;5.386;2023-05-07T06:58:11;21.35;;;11.70;;
70800;SDS011;59616;52.170;5.386;2023-05-07T07:00:39;24.73;;;12.52;;
70800;SDS011;59616;52.170;5.386;2023-05-07T07:03:07;22.85;;;12.68;;
70800;SDS011;59616;52.170;5.386;2023-05-07T07:05:34;21.27;;;11.63;;
70800;SDS011;59616;52.170;5.386;2023-05-07T07:08:02;20.60;;;12.02;;
70800;SDS011;59616;52.170;5.386;2023-05-07T07:10:29;22.83;;;12.40;;
70800;SDS011;59616;52.170;5.386;2023-05-07T07:12:56;22.58;;;11.77;;
70800;SDS011;59616;52.170;5.386;2023-05-07T07:15:24;23.20;;;12.05;;
70800;SDS011;59616;52.170;5.386;2023-05-07T07:17:54;23.27;;;11.98;;
70800;SDS011;59616;52.170;5.386;2023-05-07T07:20:22;23.75;;;11.95;;
70800;SDS011;59616;52.170;5.386;2023-05-07T07:22:50;25.23;;;13.25;;
70800;SDS011;59616;52.170;5.386;2023-05-07T07:25:17;20.48;;;11.63;;
70800;SDS011;59616;52.170;5.386;2023-05-07T07:27:44;25.67;;;12.00;;
70800;SDS011;59616;52.170;5.386;2023-05-07T07:30:13;21.20;;;12.15;;
70800;SDS011;59616;52.170;5.386;2023-05-07T07:32:44;23.90;;;12.18;;
70800;SDS011;59616;52.170;5.386;2023-05-07T07:35:11;22.90;;;12.25;;
70800;SDS011;59616;52.170;5.386;2023-05-07T07:37:39;22.27;;;11.77;;
70800;SDS011;59616;52.170;5.386;2023-05-07T07:40:06;22.23;;;11.77;;
70800;SDS011;59616;52.170;5.386;2023-05-07T07:42:35;22.65;;;12.20;;
70800;SDS011;59616;52.170;5.386;2023-05-07T07:45:03;22.75;;;11.77;;
70800;SDS011;59616;52.170;5.386;2023-05-07T07:47:33;21.50;;;12.40;;
70800;SDS011;59616;52.170;5.386;2023-05-07T07:50:01;22.10;;;11.85;;
70800;SDS011;59616;52.170;5.386;2023-05-07T07:52:28;20.85;;;11.13;;
70800;SDS011;59616;52.170;5.386;2023-05-07T07:54:55;22.08;;;12.15;;
70800;SDS011;59616;52.170;5.386;2023-05-07T07:57:24;21.05;;;11.98;;
70800;SDS011;59616;52.170;5.386;2023-05-07T07:59:51;23.63;;;11.90;;
70800;SDS011;59616;52.170;5.386;2023-05-07T08:02:19;22.65;;;12.43;;
70800;SDS011;59616;52.170;5.386;2023-05-07T08:04:47;21.08;;;12.00;;
70800;SDS011;59616;52.170;5.386;2023-05-07T08:07:16;21.48;;;11.57;;
70800;SDS011;59616;52.170;5.386;2023-05-07T08:09:47;20.33;;;11.75;;
70800;SDS011;59616;52.170;5.386;2023-05-07T08:12:16;22.65;;;11.50;;
70800;SDS011;59616;52.170;5.386;2023-05-07T08:14:44;21.05;;;11.38;;
70800;SDS011;59616;52.170;5.386;2023-05-07T08:17:11;21.33;;;12.40;;
70800;SDS011;59616;52.170;5.386;2023-05-07T08:19:39;18.10;;;11.07;;
70800;SDS011;59616;52.170;5.386;2023-05-07T08:22:10;20.05;;;11.55;;
70800;SDS011;59616;52.170;5.386;2023-05-07T08:24:38;19.88;;;11.63;;
70800;SDS011;59616;52.170;5.386;2023-05-07T08:27:05;22.17;;;12.00;;
70800;SDS011;59616;52.170;5.386;2023-05-07T08:29:33;22.83;;;12.40;;
70800;SDS011;59616;52.170;5.386;2023-05-07T08:32:00;24.58;;;12.77;;
70800;SDS011;59616;52.170;5.386;2023-05-07T08:34:27;23.75;;;12.98;;
70800;SDS011;59616;52.170;5.386;2023-05-07T08:36:56;23.10;;;13.23;;
70800;SDS011;59616;52.170;5.386;2023-05-07T08:39:24;22.23;;;12.52;;
70800;SDS011;59616;52.170;5.386;2023-05-07T08:41:54;23.25;;;12.60;;
70800;SDS011;59616;52.170;5.386;2023-05-07T08:44:26;21.35;;;12.55;;
70800;SDS011;59616;52.170;5.386;2023-05-07T08:46:57;25.02;;;12.60;;
70800;SDS011;59616;52.170;5.386;2023-05-07T08:49:25;22.38;;;12.82;;
70800;SDS011;59616;52.170;5.386;2023-05-07T08:51:53;23.23;;;13.65;;
70800;SDS011;59616;52.170;5.386;2023-05-07T08:54:21;23.83;;;13.15;;
70800;SDS011;59616;52.170;5.386;2023-05-07T08:56:49;23.95;;;13.23;;
70800;SDS011;59616;52.170;5.386;2023-05-07T08:59:17;23.85;;;13.73;;
70800;SDS011;59616;52.170;5.386;2023-05-07T09:01:45;25.95;;;13.82;;
70800;SDS011;59616;52.170;5.386;2023-05-07T09:04:13;24.40;;;13.73;;
70800;SDS011;59616;52.170;5.386;2023-05-07T09:06:42;24.02;;;13.77;;
70800;SDS011;59616;52.170;5.386;2023-05-07T09:09:14;26.23;;;14.57;;
70800;SDS011;59616;52.170;5.386;2023-05-07T09:11:41;26.52;;;14.68;;
70800;SDS011;59616;52.170;5.386;2023-05-07T09:14:10;24.35;;;13.00;;
70800;SDS011;59616;52.170;5.386;2023-05-07T09:16:40;23.55;;;13.60;;
70800;SDS011;59616;52.170;5.386;2023-05-07T09:19:08;25.80;;;13.40;;
70800;SDS011;59616;52.170;5.386;2023-05-07T09:21:36;26.45;;;14.15;;
70800;SDS011;59616;52.170;5.386;2023-05-07T09:24:07;23.60;;;13.10;;
70800;SDS011;59616;52.170;5.386;2023-05-07T09:26:39;22.20;;;12.88;;
70800;SDS011;59616;52.170;5.386;2023-05-07T09:29:07;25.38;;;13.93;;
70800;SDS011;59616;52.170;5.386;2023-05-07T09:31:38;23.00;;;12.95;;
70800;SDS011;59616;52.170;5.386;2023-05-07T09:34:08;25.75;;;13.27;;
70800;SDS011;59616;52.170;5.386;2023-05-07T09:36:40;21.50;;;11.95;;
70800;SDS011;59616;52.170;5.386;2023-05-07T09:39:07;19.13;;;10.82;;
70800;SDS011;59616;52.170;5.386;2023-05-07T09:41:42;21.00;;;11.20;;
70800;SDS011;59616;52.170;5.386;2023-05-07T09:44:16;18.40;;;10.63;;
70800;SDS011;59616;52.170;5.386;2023-05-07T09:46:51;19.75;;;10.52;;
70800;SDS011;59616;52.170;5.386;2023-05-07T09:49:25;21.52;;;11.52;;
70800;SDS011;59616;52.170;5.386;2023-05-07T09:52:02;24.20;;;11.35;;
70800;SDS011;59616;52.170;5.386;2023-05-07T09:54:33;22.33;;;10.95;;
70800;SDS011;59616;52.170;5.386;2023-05-07T09:57:01;20.75;;;11.52;;
70800;SDS011;59616;52.170;5.386;2023-05-07T09:59:30;20.50;;;11.27;;
70800;SDS011;59616;52.170;5.386;2023-05-07T10:02:01;20.70;;;11.35;;
70800;SDS011;59616;52.170;5.386;2023-05-07T10:04:33;21.05;;;11.50;;
70800;SDS011;59616;52.170;5.386;2023-05-07T10:07:01;19.40;;;10.23;;
70800;SDS011;59616;52.170;5.386;2023-05-07T10:09:31;20.30;;;10.88;;
70800;SDS011;59616;52.170;5.386;2023-05-07T10:11:59;20.10;;;10.40;;
70800;SDS011;59616;52.170;5.386;2023-05-07T10:14:27;19.65;;;10.02;;
70800;SDS011;59616;52.170;5.386;2023-05-07T10:16:56;18.67;;;10.35;;
70800;SDS011;59616;52.170;5.386;2023-05-07T10:19:25;19.33;;;10.57;;
70800;SDS011;59616;52.170;5.386;2023-05-07T10:21:55;21.42;;;10.38;;
70800;SDS011;59616;52.170;5.386;2023-05-07T10:24:26;19.85;;;9.95;;
70800;SDS011;59616;52.170;5.386;2023-05-07T10:26:54;18.77;;;9.73;;
70800;SDS011;59616;52.170;5.386;2023-05-07T10:31:55;19.10;;;10.23;;
70800;SDS011;59616;52.170;5.386;2023-05-07T10:34:26;19.35;;;10.43;;
70800;SDS011;59616;52.170;5.386;2023-05-07T10:36:55;20.15;;;10.15;;
70800;SDS011;59616;52.170;5.386;2023-05-07T10:39:23;18.17;;;10.43;;
70800;SDS011;59616;52.170;5.386;2023-05-07T10:41:51;19.50;;;10.23;;
70800;SDS011;59616;52.170;5.386;2023-05-07T10:44:27;20.67;;;10.82;;
70800;SDS011;59616;52.170;5.386;2023-05-07T10:47:07;21.83;;;10.85;;
70800;SDS011;59616;52.170;5.386;2023-05-07T10:50:19;21.55;;;10.88;;
70800;SDS011;59616;52.170;5.386;2023-05-07T10:52:29;20.30;;;11.13;;
70800;SDS011;59616;52.170;5.386;2023-05-07T10:57:50;19.83;;;10.45;;
70800;SDS011;59616;52.170;5.386;2023-05-07T11:03:09;17.70;;;10.48;;
70800;SDS011;59616;52.170;5.386;2023-05-07T11:06:10;20.02;;;10.98;;
70800;SDS011;59616;52.170;5.386;2023-05-07T11:08:54;17.40;;;9.88;;
70800;SDS011;59616;52.170;5.386;2023-05-07T11:11:45;18.88;;;10.93;;
70800;SDS011;59616;52.170;5.386;2023-05-07T11:14:44;22.55;;;11.40;;
70800;SDS011;59616;52.170;5.386;2023-05-07T11:17:24;19.90;;;11.25;;
70800;SDS011;59616;52.170;5.386;2023-05-07T11:19:59;23.00;;;11.30;;
70800;SDS011;59616;52.170;5.386;2023-05-07T11:22:52;20.77;;;10.95;;
70800;SDS011;59616;52.170;5.386;2023-05-07T11:25:33;19.95;;;11.18;;
70800;SDS011;59616;52.170;5.386;2023-05-07T11:28:10;19.70;;;10.85;;
70800;SDS011;59616;52.170;5.386;2023-05-07T11:30:47;19.95;;;10.27;;
70800;SDS011;59616;52.170;5.386;2023-05-07T11:33:17;20.10;;;10.90;;
70800;SDS011;59616;52.170;5.386;2023-05-07T11:35:45;19.08;;;10.88;;
70800;SDS011;59616;52.170;5.386;2023-05-07T11:38:16;22.33;;;12.18;;
70800;SDS011;59616;52.170;5.386;2023-05-07T11:40:50;21.33;;;11.88;;
70800;SDS011;59616;52.170;5.386;2023-05-07T11:43:17;21.85;;;11.52;;
70800;SDS011;59616;52.170;5.386;2023-05-07T11:45:48;19.35;;;11.32;;
70800;SDS011;59616;52.170;5.386;2023-05-07T11:48:16;21.95;;;11.43;;
70800;SDS011;59616;52.170;5.386;2023-05-07T11:50:53;23.65;;;12.30;;
70800;SDS011;59616;52.170;5.386;2023-05-07T11:53:20;20.73;;;12.23;;
70800;SDS011;59616;52.170;5.386;2023-05-07T11:55:57;20.05;;;12.07;;
70800;SDS011;59616;52.170;5.386;2023-05-07T11:58:24;23.15;;;12.13;;
70800;SDS011;59616;52.170;5.386;2023-05-07T12:00:52;20.75;;;12.35;;
70800;SDS011;59616;52.170;5.386;2023-05-07T12:03:20;22.90;;;12.77;;
70800;SDS011;59616;52.170;5.386;2023-05-07T12:05:48;24.88;;;13.73;;
70800;SDS011;59616;52.170;5.386;2023-05-07T12:08:16;21.13;;;12.50;;
70800;SDS011;59616;52.170;5.386;2023-05-07T12:10:43;20.95;;;12.45;;
70800;SDS011;59616;52.170;5.386;2023-05-07T12:13:17;22.67;;;11.85;;
70800;SDS011;59616;52.170;5.386;2023-05-07T12:15:45;22.95;;;12.48;;
70800;SDS011;59616;52.170;5.386;2023-05-07T12:18:13;21.10;;;12.20;;
70800;SDS011;59616;52.170;5.386;2023-05-07T12:20:40;21.10;;;12.48;;
70800;SDS011;59616;52.170;5.386;2023-05-07T12:23:07;20.45;;;11.57;;
70800;SDS011;59616;52.170;5.386;2023-05-07T12:25:35;18.77;;;12.13;;
70800;SDS011;59616;52.170;5.386;2023-05-07T12:28:04;19.60;;;12.00;;
70800;SDS011;59616;52.170;5.386;2023-05-07T12:30:32;19.95;;;11.95;;
70800;SDS011;59616;52.170;5.386;2023-05-07T12:32:59;20.77;;;12.48;;
70800;SDS011;59616;52.170;5.386;2023-05-07T12:35:27;20.98;;;11.50;;
70800;SDS011;59616;52.170;5.386;2023-05-07T12:37:55;24.95;;;13.50;;
70800;SDS011;59616;52.170;5.386;2023-05-07T12:40:22;20.58;;;12.60;;
70800;SDS011;59616;52.170;5.386;2023-05-07T12:42:52;22.00;;;13.02;;
70800;SDS011;59616;52.170;5.386;2023-05-07T12:45:25;21.10;;;13.13;;
70800;SDS011;59616;52.170;5.386;2023-05-07T12:47:53;20.88;;;11.85;;
70800;SDS011;59616;52.170;5.386;2023-05-07T12:50:20;20.75;;;11.68;;
70800;SDS011;59616;52.170;5.386;2023-05-07T12:52:47;21.40;;;12.57;;
70800;SDS011;59616;52.170;5.386;2023-05-07T12:55:15;22.85;;;13.00;;
70800;SDS011;59616;52.170;5.386;2023-05-07T12:57:45;26.52;;;13.18;;
70800;SDS011;59616;52.170;5.386;2023-05-07T13:00:14;22.63;;;12.63;;
70800;SDS011;59616;52.170;5.386;2023-05-07T13:02:42;21.60;;;12.00;;
70800;SDS011;59616;52.170;5.386;2023-05-07T13:05:11;21.50;;;12.30;;
70800;SDS011;59616;52.170;5.386;2023-05-07T13:07:39;24.23;;;12.73;;
70800;SDS011;59616;52.170;5.386;2023-05-07T13:10:07;19.98;;;11.40;;
70800;SDS011;59616;52.170;5.386;2023-05-07T13:12:34;16.77;;;10.90;;
70800;SDS011;59616;52.170;5.386;2023-05-07T13:15:01;21.70;;;11.05;;
70800;SDS011;59616;52.170;5.386;2023-05-07T13:17:28;18.25;;;10.80;;
70800;SDS011;59616;52.170;5.386;2023-05-07T13:19:57;16.67;;;9.55;;
70800;SDS011;59616;52.170;5.386;2023-05-07T13:22:24;14.15;;;6.63;;
70800;SDS011;59616;52.170;5.386;2023-05-07T13:24:52;14.65;;;5.40;;
70800;SDS011;59616;52.170;5.386;2023-05-07T13:27:19;10.93;;;5.15;;
70800;SDS011;59616;52.170;5.386;2023-05-07T13:29:46;10.23;;;5.13;;
70800;SDS011;59616;52.170;5.386;2023-05-07T13:32:13;14.80;;;6.90;;
70800;SDS011;59616;52.170;5.386;2023-05-07T13:34:41;13.52;;;7.60;;
70800;SDS011;59616;52.170;5.386;2023-05-07T13:37:08;14.45;;;6.43;;
70800;SDS011;59616;52.170;5.386;2023-05-07T13:39:37;17.45;;;7.80;;
70800;SDS011;59616;52.170;5.386;2023-05-07T13:42:04;16.52;;;8.45;;
70800;SDS011;59616;52.170;5.386;2023-05-07T13:44:31;17.20;;;8.60;;
70800;SDS011;59616;52.170;5.386;2023-05-07T13:46:59;14.98;;;8.55;;
70800;SDS011;59616;52.170;5.386;2023-05-07T13:49:26;14.57;;;8.40;;
70800;SDS011;59616;52.170;5.386;2023-05-07T13:51:54;14.70;;;8.38;;
70800;SDS011;59616;52.170;5.386;2023-05-07T13:54:21;18.10;;;9.05;;
70800;SDS011;59616;52.170;5.386;2023-05-07T13:56:48;18.95;;;10.50;;
70800;SDS011;59616;52.170;5.386;2023-05-07T13:59:16;17.80;;;9.77;;
70800;SDS011;59616;52.170;5.386;2023-05-07T14:01:43;17.13;;;8.80;;
70800;SDS011;59616;52.170;5.386;2023-05-07T14:04:10;17.02;;;8.57;;
70800;SDS011;59616;52.170;5.386;2023-05-07T14:06:37;18.90;;;9.65;;
70800;SDS011;59616;52.170;5.386;2023-05-07T14:09:05;18.00;;;9.57;;
70800;SDS011;59616;52.170;5.386;2023-05-07T14:11:33;15.98;;;9.35;;
70800;SDS011;59616;52.170;5.386;2023-05-07T14:14:01;20.08;;;10.88;;
70800;SDS011;59616;52.170;5.386;2023-05-07T14:16:28;20.70;;;10.43;;
70800;SDS011;59616;52.170;5.386;2023-05-07T14:18:56;18.20;;;10.88;;
70800;SDS011;59616;52.170;5.386;2023-05-07T14:21:24;17.70;;;10.10;;
70800;SDS011;59616;52.170;5.386;2023-05-07T14:23:51;17.67;;;10.38;;
70800;SDS011;59616;52.170;5.386;2023-05-07T14:26:19;21.17;;;10.60;;
70800;SDS011;59616;52.170;5.386;2023-05-07T14:28:46;17.92;;;9.77;;
70800;SDS011;59616;52.170;5.386;2023-05-07T14:31:14;17.13;;;10.40;;
70800;SDS011;59616;52.170;5.386;2023-05-07T14:33:41;20.27;;;10.43;;
70800;SDS011;59616;52.170;5.386;2023-05-07T14:36:08;19.50;;;10.30;;
70800;SDS011;59616;52.170;5.386;2023-05-07T14:38:35;17.60;;;9.77;;
70800;SDS011;59616;52.170;5.386;2023-05-07T14:41:02;22.60;;;10.25;;
70800;SDS011;59616;52.170;5.386;2023-05-07T14:43:30;18.50;;;10.90;;
70800;SDS011;59616;52.170;5.386;2023-05-07T14:45:57;17.48;;;10.27;;
70800;SDS011;59616;52.170;5.386;2023-05-07T14:48:24;19.65;;;11.07;;